sensor_id;sensor_type;location;lat;lon;timestamp;temperature;humidity
22629;DHT22;11481;53.694;9.910;2023-05-10T00:00:16;16.80;99.90
22629;DHT22;11481;53.694;9.910;2023-05-10T00:02:43;16.80;99.90
22629;DHT22;11481;53.694;9.910;2023-05-10T00:05:10;16.80;99.90
22629;DHT22;11481;53.694;9.910;2023-05-10T00:07:37;16.70;99.90
22629;DHT22;11481;53.694;9.910;2023-05-10T00:10:04;16.70;99.90
22629;DHT22;11481;53.694;9.910;2023-05-10T00:12:31;16.60;99.90
22629;DHT22;11481;53.694;9.910;2023-05-10T00:14:57;16.60;99.90
22629;DHT22;11481;53.694;9.910;2023-05-10T00:17:24;16.50;99.90
22629;DHT22;11481;53.694;9.910;2023-05-10T00:19:51;16.50;99.90
22629;DHT22;11481;53.694;9.910;2023-05-10T00:22:17;16.50;99.90
22629;DHT22;11481;53.694;9.910;2023-05-10T00:24:44;16.60;99.90
22629;DHT22;11481;53.694;9.910;2023-05-10T00:27:10;16.50;99.90
22629;DHT22;11481;53.694;9.910;2023-05-10T00:29:37;16.50;99.90
22629;DHT22;11481;53.694;9.910;2023-05-10T00:32:04;16.50;99.90
22629;DHT22;11481;53.694;9.910;2023-05-10T00:34:31;16.50;99.90
22629;DHT22;11481;53.694;9.910;2023-05-10T00:36:58;16.40;99.90
22629;DHT22;11481;53.694;9.910;2023-05-10T00:39:24;16.50;99.90
22629;DHT22;11481;53.694;9.910;2023-05-10T00:41:52;16.30;99.90
22629;DHT22;11481;53.694;9.910;2023-05-10T00:44:19;16.40;99.90
22629;DHT22;11481;53.694;9.910;2023-05-10T00:46:46;16.40;99.90
22629;DHT22;11481;53.694;9.910;2023-05-10T00:49:13;16.40;99.90
22629;DHT22;11481;53.694;9.910;2023-05-10T00:51:40;16.40;99.90
22629;DHT22;11481;53.694;9.910;2023-05-10T00:54:11;16.40;99.90
22629;DHT22;11481;53.694;9.910;2023-05-10T00:56:39;16.40;99.90
22629;DHT22;11481;53.694;9.910;2023-05-10T00:59:08;16.30;99.90
22629;DHT22;11481;53.694;9.910;2023-05-10T01:01:35;16.30;99.90
22629;DHT22;11481;53.694;9.910;2023-05-10T01:04:03;16.30;99.90
22629;DHT22;11481;53.694;9.910;2023-05-10T01:06:30;16.30;99.90
22629;DHT22;11481;53.694;9.910;2023-05-10T01:08:57;16.30;99.90
22629;DHT22;11481;53.694;9.910;2023-05-10T01:11:24;16.30;99.90
22629;DHT22;11481;53.694;9.910;2023-05-10T01:13:56;16.20;99.90
22629;DHT22;11481;53.694;9.910;2023-05-10T01:16:24;16.20;99.90
22629;DHT22;11481;53.694;9.910;2023-05-10T01:18:53;16.10;99.90
22629;DHT22;11481;53.694;9.910;2023-05-10T01:29:49;15.90;99.90
22629;DHT22;11481;53.694;9.910;2023-05-10T01:37:50;15.90;99.90
22629;DHT22;11481;53.694;9.910;2023-05-10T01:40:24;15.80;99.90
22629;DHT22;11481;53.694;9.910;2023-05-10T01:42:56;15.70;99.90
22629;DHT22;11481;53.694;9.910;2023-05-10T01:48:08;15.80;99.90
22629;DHT22;11481;53.694;9.910;2023-05-10T01:50:38;15.70;99.90
22629;DHT22;11481;53.694;9.910;2023-05-10T01:53:08;15.70;99.90
22629;DHT22;11481;53.694;9.910;2023-05-10T01:55:42;15.70;99.90
22629;DHT22;11481;53.694;9.910;2023-05-10T01:58:13;15.70;99.90
22629;DHT22;11481;53.694;9.910;2023-05-10T02:00:44;15.60;99.90
22629;DHT22;11481;53.694;9.910;2023-05-10T02:03:12;15.60;99.90
22629;DHT22;11481;53.694;9.910;2023-05-10T02:05:41;15.60;99.90
22629;DHT22;11481;53.694;9.910;2023-05-10T02:08:09;15.50;99.90
22629;DHT22;11481;53.694;9.910;2023-05-10T02:10:37;15.40;99.90
22629;DHT22;11481;53.694;9.910;2023-05-10T02:13:07;15.30;99.90
22629;DHT22;11481;53.694;9.910;2023-05-10T02:15:35;15.30;99.90
22629;DHT22;11481;53.694;9.910;2023-05-10T02:18:04;15.20;99.90
22629;DHT22;11481;53.694;9.910;2023-05-10T02:20:32;15.20;99.90
22629;DHT22;11481;53.694;9.910;2023-05-10T02:23:00;15.20;99.90
22629;DHT22;11481;53.694;9.910;2023-05-10T02:25:28;15.20;99.90
22629;DHT22;11481;53.694;9.910;2023-05-10T02:27:57;15.10;99.90
22629;DHT22;11481;53.694;9.910;2023-05-10T02:30:26;15.10;99.90
22629;DHT22;11481;53.694;9.910;2023-05-10T02:32:53;15.00;99.90
22629;DHT22;11481;53.694;9.910;2023-05-10T02:35:20;14.90;99.90
22629;DHT22;11481;53.694;9.910;2023-05-10T02:37:48;14.90;99.90
22629;DHT22;11481;53.694;9.910;2023-05-10T02:40:17;14.90;99.90
22629;DHT22;11481;53.694;9.910;2023-05-10T02:42:45;14.90;99.90
22629;DHT22;11481;53.694;9.910;2023-05-10T02:45:21;14.90;99.90
22629;DHT22;11481;53.694;9.910;2023-05-10T02:47:48;14.80;99.90
22629;DHT22;11481;53.694;9.910;2023-05-10T02:50:15;14.80;99.90
22629;DHT22;11481;53.694;9.910;2023-05-10T02:52:46;14.80;99.90
22629;DHT22;11481;53.694;9.910;2023-05-10T02:55:15;14.70;99.90
22629;DHT22;11481;53.694;9.910;2023-05-10T02:57:48;14.80;99.90
22629;DHT22;11481;53.694;9.910;2023-05-10T03:00:17;14.70;99.90
22629;DHT22;11481;53.694;9.910;2023-05-10T03:02:44;14.70;99.90
22629;DHT22;11481;53.694;9.910;2023-05-10T03:05:10;14.70;99.90
22629;DHT22;11481;53.694;9.910;2023-05-10T03:07:37;14.70;99.90
22629;DHT22;11481;53.694;9.910;2023-05-10T03:10:04;14.70;99.90
22629;DHT22;11481;53.694;9.910;2023-05-10T03:12:52;14.70;99.90
22629;DHT22;11481;53.694;9.910;2023-05-10T03:15:51;14.70;99.90
22629;DHT22;11481;53.694;9.910;2023-05-10T03:18:25;14.60;99.90
22629;DHT22;11481;53.694;9.910;2023-05-10T03:21:00;14.60;99.90
22629;DHT22;11481;53.694;9.910;2023-05-10T03:26:14;14.60;99.90
22629;DHT22;11481;53.694;9.910;2023-05-10T03:28:42;14.60;99.90
22629;DHT22;11481;53.694;9.910;2023-05-10T03:31:09;14.60;99.90
22629;DHT22;11481;53.694;9.910;2023-05-10T03:33:48;14.50;99.90
22629;DHT22;11481;53.694;9.910;2023-05-10T03:36:17;14.50;99.90
22629;DHT22;11481;53.694;9.910;2023-05-10T03:38:44;14.50;99.90
22629;DHT22;11481;53.694;9.910;2023-05-10T03:41:11;14.50;99.90
22629;DHT22;11481;53.694;9.910;2023-05-10T03:43:37;14.40;99.90
22629;DHT22;11481;53.694;9.910;2023-05-10T03:46:05;14.50;99.90
22629;DHT22;11481;53.694;9.910;2023-05-10T03:48:32;14.50;99.90
22629;DHT22;11481;53.694;9.910;2023-05-10T03:50:59;14.40;99.90
22629;DHT22;11481;53.694;9.910;2023-05-10T03:53:25;14.40;99.90
22629;DHT22;11481;53.694;9.910;2023-05-10T03:55:53;14.40;99.90
22629;DHT22;11481;53.694;9.910;2023-05-10T03:58:19;14.40;99.90
22629;DHT22;11481;53.694;9.910;2023-05-10T04:00:46;14.40;99.90
22629;DHT22;11481;53.694;9.910;2023-05-10T04:03:13;14.30;99.90
22629;DHT22;11481;53.694;9.910;2023-05-10T04:05:41;14.40;99.90
22629;DHT22;11481;53.694;9.910;2023-05-10T04:08:07;14.30;99.90
22629;DHT22;11481;53.694;9.910;2023-05-10T04:10:34;14.30;99.90
22629;DHT22;11481;53.694;9.910;2023-05-10T04:13:01;14.30;99.90
22629;DHT22;11481;53.694;9.910;2023-05-10T04:15:28;14.30;99.90
22629;DHT22;11481;53.694;9.910;2023-05-10T04:17:54;14.30;99.90
22629;DHT22;11481;53.694;9.910;2023-05-10T04:20:21;14.30;99.90
22629;DHT22;11481;53.694;9.910;2023-05-10T04:22:48;14.20;99.90
22629;DHT22;11481;53.694;9.910;2023-05-10T04:25:14;14.30;99.90
22629;DHT22;11481;53.694;9.910;2023-05-10T04:27:41;14.30;99.90
22629;DHT22;11481;53.694;9.910;2023-05-10T04:30:08;14.30;99.90
22629;DHT22;11481;53.694;9.910;2023-05-10T04:32:35;14.30;99.90
22629;DHT22;11481;53.694;9.910;2023-05-10T04:35:02;14.30;99.90
22629;DHT22;11481;53.694;9.910;2023-05-10T04:37:30;14.30;99.90
22629;DHT22;11481;53.694;9.910;2023-05-10T04:39:56;14.30;99.90
22629;DHT22;11481;53.694;9.910;2023-05-10T04:42:24;14.30;99.90
22629;DHT22;11481;53.694;9.910;2023-05-10T04:44:50;14.30;99.90
22629;DHT22;11481;53.694;9.910;2023-05-10T04:47:18;14.30;99.90
22629;DHT22;11481;53.694;9.910;2023-05-10T04:49:48;14.30;99.90
22629;DHT22;11481;53.694;9.910;2023-05-10T04:52:14;14.30;99.90
22629;DHT22;11481;53.694;9.910;2023-05-10T04:54:43;14.40;99.90
22629;DHT22;11481;53.694;9.910;2023-05-10T04:57:10;14.30;99.90
22629;DHT22;11481;53.694;9.910;2023-05-10T04:59:36;14.30;99.90
22629;DHT22;11481;53.694;9.910;2023-05-10T05:02:04;14.30;99.90
22629;DHT22;11481;53.694;9.910;2023-05-10T05:04:31;14.40;99.90
22629;DHT22;11481;53.694;9.910;2023-05-10T05:06:58;14.40;99.90
22629;DHT22;11481;53.694;9.910;2023-05-10T05:09:25;14.40;99.90
22629;DHT22;11481;53.694;9.910;2023-05-10T05:11:52;14.40;99.90
22629;DHT22;11481;53.694;9.910;2023-05-10T05:14:19;14.40;99.90
22629;DHT22;11481;53.694;9.910;2023-05-10T05:16:47;14.40;99.90
22629;DHT22;11481;53.694;9.910;2023-05-10T05:19:14;14.40;99.90
22629;DHT22;11481;53.694;9.910;2023-05-10T05:21:40;14.50;99.90
22629;DHT22;11481;53.694;9.910;2023-05-10T05:24:08;14.50;99.90
22629;DHT22;11481;53.694;9.910;2023-05-10T05:26:36;14.60;99.90
22629;DHT22;11481;53.694;9.910;2023-05-10T05:29:03;14.60;99.90
22629;DHT22;11481;53.694;9.910;2023-05-10T05:31:30;14.60;99.90
22629;DHT22;11481;53.694;9.910;2023-05-10T05:33:57;14.60;99.90
22629;DHT22;11481;53.694;9.910;2023-05-10T05:36:23;14.70;99.90
22629;DHT22;11481;53.694;9.910;2023-05-10T05:38:51;14.80;99.90
22629;DHT22;11481;53.694;9.910;2023-05-10T05:41:18;14.80;99.90
22629;DHT22;11481;53.694;9.910;2023-05-10T05:43:44;14.80;99.90
22629;DHT22;11481;53.694;9.910;2023-05-10T05:46:11;14.80;99.90
22629;DHT22;11481;53.694;9.910;2023-05-10T05:48:40;14.80;99.90
22629;DHT22;11481;53.694;9.910;2023-05-10T05:51:09;14.80;99.90
22629;DHT22;11481;53.694;9.910;2023-05-10T05:53:39;14.90;99.90
22629;DHT22;11481;53.694;9.910;2023-05-10T05:56:06;15.00;99.90
22629;DHT22;11481;53.694;9.910;2023-05-10T05:58:32;15.10;99.90
22629;DHT22;11481;53.694;9.910;2023-05-10T06:00:59;15.20;99.90
22629;DHT22;11481;53.694;9.910;2023-05-10T06:03:26;15.20;99.90
22629;DHT22;11481;53.694;9.910;2023-05-10T06:05:52;15.30;99.90
22629;DHT22;11481;53.694;9.910;2023-05-10T06:08:19;15.30;99.90
22629;DHT22;11481;53.694;9.910;2023-05-10T06:10:46;15.30;99.90
22629;DHT22;11481;53.694;9.910;2023-05-10T06:13:13;15.50;99.90
22629;DHT22;11481;53.694;9.910;2023-05-10T06:15:40;15.70;99.90
22629;DHT22;11481;53.694;9.910;2023-05-10T06:18:07;15.60;99.90
22629;DHT22;11481;53.694;9.910;2023-05-10T06:20:33;15.70;99.90
22629;DHT22;11481;53.694;9.910;2023-05-10T06:23:00;15.90;99.90
22629;DHT22;11481;53.694;9.910;2023-05-10T06:25:51;15.90;99.90
22629;DHT22;11481;53.694;9.910;2023-05-10T06:28:18;15.90;99.90
22629;DHT22;11481;53.694;9.910;2023-05-10T06:30:45;16.00;99.90
22629;DHT22;11481;53.694;9.910;2023-05-10T06:33:11;16.10;99.90
22629;DHT22;11481;53.694;9.910;2023-05-10T06:35:38;16.10;99.90
22629;DHT22;11481;53.694;9.910;2023-05-10T06:38:05;16.10;99.90
22629;DHT22;11481;53.694;9.910;2023-05-10T06:40:31;16.20;99.90
22629;DHT22;11481;53.694;9.910;2023-05-10T06:42:59;16.30;99.90
22629;DHT22;11481;53.694;9.910;2023-05-10T06:45:25;16.20;99.90
22629;DHT22;11481;53.694;9.910;2023-05-10T06:47:54;16.30;99.90
22629;DHT22;11481;53.694;9.910;2023-05-10T06:50:21;16.30;99.90
22629;DHT22;11481;53.694;9.910;2023-05-10T06:52:47;16.40;99.90
22629;DHT22;11481;53.694;9.910;2023-05-10T06:55:16;16.40;99.90
22629;DHT22;11481;53.694;9.910;2023-05-10T06:57:43;16.50;99.90
22629;DHT22;11481;53.694;9.910;2023-05-10T07:00:09;16.50;99.90
22629;DHT22;11481;53.694;9.910;2023-05-10T07:02:39;16.60;99.90
22629;DHT22;11481;53.694;9.910;2023-05-10T07:05:06;16.60;99.90
22629;DHT22;11481;53.694;9.910;2023-05-10T07:07:33;16.70;99.90
22629;DHT22;11481;53.694;9.910;2023-05-10T07:09:59;16.80;99.90
22629;DHT22;11481;53.694;9.910;2023-05-10T07:12:27;16.90;99.90
22629;DHT22;11481;53.694;9.910;2023-05-10T07:14:53;16.90;99.90
22629;DHT22;11481;53.694;9.910;2023-05-10T07:17:20;17.00;99.90
22629;DHT22;11481;53.694;9.910;2023-05-10T07:19:50;17.10;99.90
22629;DHT22;11481;53.694;9.910;2023-05-10T07:22:16;17.20;99.90
22629;DHT22;11481;53.694;9.910;2023-05-10T07:24:43;17.30;99.90
22629;DHT22;11481;53.694;9.910;2023-05-10T07:27:10;17.20;99.90
22629;DHT22;11481;53.694;9.910;2023-05-10T07:29:37;17.10;99.90
22629;DHT22;11481;53.694;9.910;2023-05-10T07:32:04;17.20;99.90
22629;DHT22;11481;53.694;9.910;2023-05-10T07:34:30;17.30;99.90
22629;DHT22;11481;53.694;9.910;2023-05-10T07:37:01;17.40;99.90
22629;DHT22;11481;53.694;9.910;2023-05-10T07:39:28;17.40;99.90
22629;DHT22;11481;53.694;9.910;2023-05-10T07:41:56;17.40;99.90
22629;DHT22;11481;53.694;9.910;2023-05-10T07:44:23;17.50;99.90
22629;DHT22;11481;53.694;9.910;2023-05-10T07:46:50;17.50;99.90
22629;DHT22;11481;53.694;9.910;2023-05-10T07:49:18;17.50;99.90
22629;DHT22;11481;53.694;9.910;2023-05-10T07:51:44;17.60;99.90
22629;DHT22;11481;53.694;9.910;2023-05-10T07:54:11;17.70;99.90
22629;DHT22;11481;53.694;9.910;2023-05-10T07:56:41;17.80;99.90
22629;DHT22;11481;53.694;9.910;2023-05-10T07:59:15;17.80;99.90
22629;DHT22;11481;53.694;9.910;2023-05-10T08:01:42;17.80;99.90
22629;DHT22;11481;53.694;9.910;2023-05-10T08:04:09;17.80;99.90
22629;DHT22;11481;53.694;9.910;2023-05-10T08:06:39;18.00;99.90
22629;DHT22;11481;53.694;9.910;2023-05-10T08:09:06;18.10;99.90
22629;DHT22;11481;53.694;9.910;2023-05-10T08:11:33;18.10;99.90
22629;DHT22;11481;53.694;9.910;2023-05-10T08:14:00;18.20;99.90
22629;DHT22;11481;53.694;9.910;2023-05-10T08:16:27;18.30;99.90
22629;DHT22;11481;53.694;9.910;2023-05-10T08:18:55;18.30;99.90
22629;DHT22;11481;53.694;9.910;2023-05-10T08:21:22;18.40;99.90
22629;DHT22;11481;53.694;9.910;2023-05-10T08:23:49;18.40;99.90
22629;DHT22;11481;53.694;9.910;2023-05-10T08:26:16;18.50;99.90
22629;DHT22;11481;53.694;9.910;2023-05-10T08:28:42;18.60;99.90
22629;DHT22;11481;53.694;9.910;2023-05-10T08:31:09;18.60;99.90
22629;DHT22;11481;53.694;9.910;2023-05-10T08:33:35;18.60;99.90
22629;DHT22;11481;53.694;9.910;2023-05-10T08:36:02;18.70;99.90
22629;DHT22;11481;53.694;9.910;2023-05-10T08:38:29;18.80;99.90
22629;DHT22;11481;53.694;9.910;2023-05-10T08:40:55;18.90;99.90
22629;DHT22;11481;53.694;9.910;2023-05-10T08:43:27;19.00;99.90
22629;DHT22;11481;53.694;9.910;2023-05-10T08:46:01;18.90;99.90
22629;DHT22;11481;53.694;9.910;2023-05-10T08:48:34;18.70;99.90
22629;DHT22;11481;53.694;9.910;2023-05-10T08:51:01;18.70;99.90
22629;DHT22;11481;53.694;9.910;2023-05-10T08:53:31;18.70;99.90
22629;DHT22;11481;53.694;9.910;2023-05-10T08:56:00;18.90;99.90
22629;DHT22;11481;53.694;9.910;2023-05-10T08:58:27;19.00;99.90
22629;DHT22;11481;53.694;9.910;2023-05-10T09:00:54;19.00;99.90
22629;DHT22;11481;53.694;9.910;2023-05-10T09:03:23;19.00;99.90
22629;DHT22;11481;53.694;9.910;2023-05-10T09:05:50;18.90;99.90
22629;DHT22;11481;53.694;9.910;2023-05-10T09:08:19;18.90;99.90
22629;DHT22;11481;53.694;9.910;2023-05-10T09:10:48;18.80;99.90
22629;DHT22;11481;53.694;9.910;2023-05-10T09:13:17;18.90;99.90
22629;DHT22;11481;53.694;9.910;2023-05-10T09:15:46;19.00;99.90
22629;DHT22;11481;53.694;9.910;2023-05-10T09:18:13;19.10;99.90
22629;DHT22;11481;53.694;9.910;2023-05-10T09:20:40;19.00;99.90
22629;DHT22;11481;53.694;9.910;2023-05-10T09:23:08;19.10;99.90
22629;DHT22;11481;53.694;9.910;2023-05-10T09:25:36;19.20;99.90
22629;DHT22;11481;53.694;9.910;2023-05-10T09:28:07;19.30;99.90
22629;DHT22;11481;53.694;9.910;2023-05-10T09:30:35;19.50;99.90
22629;DHT22;11481;53.694;9.910;2023-05-10T09:33:04;19.50;99.90
22629;DHT22;11481;53.694;9.910;2023-05-10T09:35:32;19.70;99.90
22629;DHT22;11481;53.694;9.910;2023-05-10T09:38:02;19.50;99.90
22629;DHT22;11481;53.694;9.910;2023-05-10T09:40:30;19.20;99.90
22629;DHT22;11481;53.694;9.910;2023-05-10T09:42:57;18.90;99.90
22629;DHT22;11481;53.694;9.910;2023-05-10T09:45:26;18.50;99.90
22629;DHT22;11481;53.694;9.910;2023-05-10T09:47:55;18.40;99.90
22629;DHT22;11481;53.694;9.910;2023-05-10T09:50:22;18.10;99.90
22629;DHT22;11481;53.694;9.910;2023-05-10T09:53:00;17.80;99.90
22629;DHT22;11481;53.694;9.910;2023-05-10T09:55:44;17.70;99.90
22629;DHT22;11481;53.694;9.910;2023-05-10T09:58:13;17.40;99.90
22629;DHT22;11481;53.694;9.910;2023-05-10T10:00:43;17.30;99.90
22629;DHT22;11481;53.694;9.910;2023-05-10T10:03:18;16.90;99.90
22629;DHT22;11481;53.694;9.910;2023-05-10T10:05:47;16.80;99.90
22629;DHT22;11481;53.694;9.910;2023-05-10T10:08:15;16.70;99.90
22629;DHT22;11481;53.694;9.910;2023-05-10T10:10:42;16.60;99.90
22629;DHT22;11481;53.694;9.910;2023-05-10T10:13:13;16.60;99.90
22629;DHT22;11481;53.694;9.910;2023-05-10T10:15:40;16.70;99.90
22629;DHT22;11481;53.694;9.910;2023-05-10T10:18:13;16.80;99.90
22629;DHT22;11481;53.694;9.910;2023-05-10T10:20:40;16.70;99.90
22629;DHT22;11481;53.694;9.910;2023-05-10T10:23:08;16.50;99.90
22629;DHT22;11481;53.694;9.910;2023-05-10T10:25:34;16.50;99.90
22629;DHT22;11481;53.694;9.910;2023-05-10T10:30:56;16.60;99.90
22629;DHT22;11481;53.694;9.910;2023-05-10T10:36:06;16.90;99.90
22629;DHT22;11481;53.694;9.910;2023-05-10T10:41:54;16.70;99.90
22629;DHT22;11481;53.694;9.910;2023-05-10T10:44:47;16.70;99.90
22629;DHT22;11481;53.694;9.910;2023-05-10T10:54:58;17.00;99.90
22629;DHT22;11481;53.694;9.910;2023-05-10T10:57:26;17.10;99.90
22629;DHT22;11481;53.694;9.910;2023-05-10T11:03:05;17.20;99.90
22629;DHT22;11481;53.694;9.910;2023-05-10T11:05:37;17.30;99.90
22629;DHT22;11481;53.694;9.910;2023-05-10T11:13:41;17.50;99.90
22629;DHT22;11481;53.694;9.910;2023-05-10T11:16:14;17.70;99.90
22629;DHT22;11481;53.694;9.910;2023-05-10T11:19:05;17.80;99.90
22629;DHT22;11481;53.694;9.910;2023-05-10T11:21:34;17.80;99.90
22629;DHT22;11481;53.694;9.910;2023-05-10T11:24:15;17.90;99.90
22629;DHT22;11481;53.694;9.910;2023-05-10T11:26:45;17.80;99.90
22629;DHT22;11481;53.694;9.910;2023-05-10T11:29:13;17.90;99.90
22629;DHT22;11481;53.694;9.910;2023-05-10T11:31:44;17.90;99.90
22629;DHT22;11481;53.694;9.910;2023-05-10T11:34:12;17.80;99.90
22629;DHT22;11481;53.694;9.910;2023-05-10T11:36:52;17.60;99.90
22629;DHT22;11481;53.694;9.910;2023-05-10T11:39:30;17.50;99.90
22629;DHT22;11481;53.694;9.910;2023-05-10T11:41:57;17.50;99.90
22629;DHT22;11481;53.694;9.910;2023-05-10T11:44:30;17.40;99.90
22629;DHT22;11481;53.694;9.910;2023-05-10T11:46:59;17.40;99.90
22629;DHT22;11481;53.694;9.910;2023-05-10T11:49:26;17.40;99.90
22629;DHT22;11481;53.694;9.910;2023-05-10T11:51:53;17.30;99.90
22629;DHT22;11481;53.694;9.910;2023-05-10T11:54:29;17.30;99.90
22629;DHT22;11481;53.694;9.910;2023-05-10T11:57:01;17.40;99.90
22629;DHT22;11481;53.694;9.910;2023-05-10T11:59:28;17.30;99.90
22629;DHT22;11481;53.694;9.910;2023-05-10T12:01:57;17.20;99.90
22629;DHT22;11481;53.694;9.910;2023-05-10T12:04:23;17.30;99.90
22629;DHT22;11481;53.694;9.910;2023-05-10T12:06:51;17.30;99.90
22629;DHT22;11481;53.694;9.910;2023-05-10T12:09:17;17.40;99.90
22629;DHT22;11481;53.694;9.910;2023-05-10T12:11:57;17.30;99.90
22629;DHT22;11481;53.694;9.910;2023-05-10T12:14:25;17.30;99.90
22629;DHT22;11481;53.694;9.910;2023-05-10T12:16:57;17.10;99.90
22629;DHT22;11481;53.694;9.910;2023-05-10T12:19:23;17.20;99.90
22629;DHT22;11481;53.694;9.910;2023-05-10T12:21:50;17.30;99.90
22629;DHT22;11481;53.694;9.910;2023-05-10T12:24:16;17.30;99.90
22629;DHT22;11481;53.694;9.910;2023-05-10T12:26:46;17.30;99.90
22629;DHT22;11481;53.694;9.910;2023-05-10T12:29:18;17.30;99.90
22629;DHT22;11481;53.694;9.910;2023-05-10T12:31:50;17.50;99.90
22629;DHT22;11481;53.694;9.910;2023-05-10T12:34:30;17.40;99.90
22629;DHT22;11481;53.694;9.910;2023-05-10T12:36:57;17.60;99.90
22629;DHT22;11481;53.694;9.910;2023-05-10T12:39:24;17.70;99.90
22629;DHT22;11481;53.694;9.910;2023-05-10T12:41:51;17.70;99.90
22629;DHT22;11481;53.694;9.910;2023-05-10T12:44:20;17.80;99.90
22629;DHT22;11481;53.694;9.910;2023-05-10T12:46:47;17.80;99.90
22629;DHT22;11481;53.694;9.910;2023-05-10T12:49:14;18.00;99.90
22629;DHT22;11481;53.694;9.910;2023-05-10T12:51:42;18.00;99.90
22629;DHT22;11481;53.694;9.910;2023-05-10T12:54:09;18.00;99.90
22629;DHT22;11481;53.694;9.910;2023-05-10T12:56:35;18.00;99.90
22629;DHT22;11481;53.694;9.910;2023-05-10T12:59:03;18.10;99.90
22629;DHT22;11481;53.694;9.910;2023-05-10T13:01:30;18.30;99.90
22629;DHT22;11481;53.694;9.910;2023-05-10T13:03:56;18.30;99.90
22629;DHT22;11481;53.694;9.910;2023-05-10T13:06:23;18.40;99.90
22629;DHT22;11481;53.694;9.910;2023-05-10T13:08:49;18.50;99.90
22629;DHT22;11481;53.694;9.910;2023-05-10T13:11:17;18.50;99.90
22629;DHT22;11481;53.694;9.910;2023-05-10T13:13:45;18.60;99.90
22629;DHT22;11481;53.694;9.910;2023-05-10T13:16:13;18.60;99.90
22629;DHT22;11481;53.694;9.910;2023-05-10T13:18:40;18.70;99.90
22629;DHT22;11481;53.694;9.910;2023-05-10T13:21:06;18.80;99.90
22629;DHT22;11481;53.694;9.910;2023-05-10T13:23:34;18.90;99.90
22629;DHT22;11481;53.694;9.910;2023-05-10T13:26:03;19.00;99.90
22629;DHT22;11481;53.694;9.910;2023-05-10T13:28:32;19.20;99.90
22629;DHT22;11481;53.694;9.910;2023-05-10T13:30:58;19.20;99.90
22629;DHT22;11481;53.694;9.910;2023-05-10T13:33:27;19.40;99.90
22629;DHT22;11481;53.694;9.910;2023-05-10T13:35:54;19.50;99.90
22629;DHT22;11481;53.694;9.910;2023-05-10T13:38:22;19.50;99.90
22629;DHT22;11481;53.694;9.910;2023-05-10T13:40:49;19.60;99.90
22629;DHT22;11481;53.694;9.910;2023-05-10T13:43:19;19.60;99.90
22629;DHT22;11481;53.694;9.910;2023-05-10T13:45:47;19.70;99.90
22629;DHT22;11481;53.694;9.910;2023-05-10T13:48:14;19.80;99.90
22629;DHT22;11481;53.694;9.910;2023-05-10T13:50:42;19.80;99.90
22629;DHT22;11481;53.694;9.910;2023-05-10T13:53:10;19.90;99.90
22629;DHT22;11481;53.694;9.910;2023-05-10T13:55:37;19.90;99.90
22629;DHT22;11481;53.694;9.910;2023-05-10T13:58:04;19.70;99.90
22629;DHT22;11481;53.694;9.910;2023-05-10T14:00:30;19.70;99.90
22629;DHT22;11481;53.694;9.910;2023-05-10T14:02:59;19.60;99.90
22629;DHT22;11481;53.694;9.910;2023-05-10T14:05:25;19.60;99.90
22629;DHT22;11481;53.694;9.910;2023-05-10T14:07:53;19.70;99.90
22629;DHT22;11481;53.694;9.910;2023-05-10T14:10:21;19.80;99.90
22629;DHT22;11481;53.694;9.910;2023-05-10T14:12:49;19.90;99.90
22629;DHT22;11481;53.694;9.910;2023-05-10T14:15:15;19.90;99.90
22629;DHT22;11481;53.694;9.910;2023-05-10T14:17:43;20.00;99.90
22629;DHT22;11481;53.694;9.910;2023-05-10T14:20:10;20.00;99.90
22629;DHT22;11481;53.694;9.910;2023-05-10T14:22:39;20.00;99.90
22629;DHT22;11481;53.694;9.910;2023-05-10T14:25:07;20.10;99.90
22629;DHT22;11481;53.694;9.910;2023-05-10T14:27:33;20.10;99.90
22629;DHT22;11481;53.694;9.910;2023-05-10T14:30:00;20.10;99.90
22629;DHT22;11481;53.694;9.910;2023-05-10T14:32:27;20.00;99.90
22629;DHT22;11481;53.694;9.910;2023-05-10T14:34:54;19.90;99.90
22629;DHT22;11481;53.694;9.910;2023-05-10T14:37:21;19.90;99.90
22629;DHT22;11481;53.694;9.910;2023-05-10T14:39:47;19.90;99.90
22629;DHT22;11481;53.694;9.910;2023-05-10T14:42:14;19.80;99.90
22629;DHT22;11481;53.694;9.910;2023-05-10T14:44:42;19.80;99.90
22629;DHT22;11481;53.694;9.910;2023-05-10T14:47:08;19.80;99.90
22629;DHT22;11481;53.694;9.910;2023-05-10T14:49:37;19.90;99.90
22629;DHT22;11481;53.694;9.910;2023-05-10T14:52:04;19.90;99.90
22629;DHT22;11481;53.694;9.910;2023-05-10T14:54:30;19.90;99.90
22629;DHT22;11481;53.694;9.910;2023-05-10T14:56:59;19.70;99.90
22629;DHT22;11481;53.694;9.910;2023-05-10T14:59:26;19.70;99.90
22629;DHT22;11481;53.694;9.910;2023-05-10T15:01:59;19.70;99.90
22629;DHT22;11481;53.694;9.910;2023-05-10T15:04:26;19.90;99.90
22629;DHT22;11481;53.694;9.910;2023-05-10T15:06:54;20.00;99.90
22629;DHT22;11481;53.694;9.910;2023-05-10T15:09:25;20.00;99.90
22629;DHT22;11481;53.694;9.910;2023-05-10T15:11:54;20.10;99.90
22629;DHT22;11481;53.694;9.910;2023-05-10T15:14:22;20.10;99.90
22629;DHT22;11481;53.694;9.910;2023-05-10T15:16:51;20.00;99.90
22629;DHT22;11481;53.694;9.910;2023-05-10T15:19:18;20.00;99.90
22629;DHT22;11481;53.694;9.910;2023-05-10T15:21:46;20.00;99.90
22629;DHT22;11481;53.694;9.910;2023-05-10T15:24:15;20.00;99.90
22629;DHT22;11481;53.694;9.910;2023-05-10T15:26:42;20.00;99.90
22629;DHT22;11481;53.694;9.910;2023-05-10T15:29:08;20.00;99.90
22629;DHT22;11481;53.694;9.910;2023-05-10T15:31:35;20.00;99.90
22629;DHT22;11481;53.694;9.910;2023-05-10T15:34:02;20.00;99.90
22629;DHT22;11481;53.694;9.910;2023-05-10T15:36:31;20.00;99.90
22629;DHT22;11481;53.694;9.910;2023-05-10T15:39:00;20.00;99.90
22629;DHT22;11481;53.694;9.910;2023-05-10T15:41:26;19.90;99.90
22629;DHT22;11481;53.694;9.910;2023-05-10T15:43:54;19.90;99.90
22629;DHT22;11481;53.694;9.910;2023-05-10T15:46:20;19.90;99.90
22629;DHT22;11481;53.694;9.910;2023-05-10T15:48:48;19.90;99.90
22629;DHT22;11481;53.694;9.910;2023-05-10T15:51:14;19.80;99.90
22629;DHT22;11481;53.694;9.910;2023-05-10T15:53:41;19.90;99.90
22629;DHT22;11481;53.694;9.910;2023-05-10T15:56:26;19.80;99.90
22629;DHT22;11481;53.694;9.910;2023-05-10T15:58:52;19.80;99.90
22629;DHT22;11481;53.694;9.910;2023-05-10T16:01:21;19.70;99.90
22629;DHT22;11481;53.694;9.910;2023-05-10T16:03:48;19.70;99.90
22629;DHT22;11481;53.694;9.910;2023-05-10T16:06:14;19.70;99.90
22629;DHT22;11481;53.694;9.910;2023-05-10T16:08:46;19.60;99.90
22629;DHT22;11481;53.694;9.910;2023-05-10T16:11:13;19.60;99.90
22629;DHT22;11481;53.694;9.910;2023-05-10T16:13:40;19.60;99.90
22629;DHT22;11481;53.694;9.910;2023-05-10T16:16:06;19.50;99.90
22629;DHT22;11481;53.694;9.910;2023-05-10T16:18:36;19.50;99.90
22629;DHT22;11481;53.694;9.910;2023-05-10T16:21:04;19.50;99.90